Time;durP1;ratioP1;P1;durP2;ratioP2;P2;SDS_P1;SDS_P2;PMS_P1;PMS_P2;Temp;Humidity;BMP_temperature;BMP_pressure;BME280_temperature;BME280_humidity;BME280_pressure;Samples;Min_cycle;Max_cycle;Signal;HPM_P1;HPM_P2
2022/04/16 00:00:07;;;;;;;6.25;4.93;;;;;;;12.98;63.88;101067.56;5022965;27;102436;-50
2022/04/16 00:02:33;;;;;;;6.70;4.72;;;;;;;12.98;64.03;101062.13;5000769;27;102544;-49
2022/04/16 00:04:59;;;;;;;4.65;4.25;;;;;;;12.98;63.88;101056.66;4998993;28;102132;-50
2022/04/16 00:07:27;;;;;;;5.35;4.53;;;;;;;12.98;63.95;101049.28;4993320;28;103903;-50
2022/04/16 00:10:00;;;;;;;5.43;4.68;;;;;;;12.98;63.73;101054.75;5005083;27;102287;-50
2022/04/16 00:12:27;;;;;;;4.60;3.95;;;;;;;12.97;63.98;101052.28;5002542;27;102359;-51
2022/04/16 00:14:55;;;;;;;5.97;4.20;;;;;;;12.97;63.79;101055.03;5008773;28;102353;-50
2022/04/16 00:17:34;;;;;;;5.30;4.38;;;;;;;12.96;63.75;101039.75;4996767;28;103991;-51
2022/04/16 00:20:02;;;;;;;5.35;4.57;;;;;;;12.97;64.08;101044.09;5006492;28;102289;-50
2022/04/16 00:22:30;;;;;;;4.88;4.25;;;;;;;12.97;63.71;101044.09;5004447;28;102495;-50
2022/04/16 00:24:57;;;;;;;6.63;4.78;;;;;;;12.97;63.85;101041.38;5003789;27;102602;-50
2022/04/16 00:27:24;;;;;;;5.32;4.40;;;;;;;12.97;63.97;101044.09;5011607;27;104065;-51
2022/04/16 00:29:50;;;;;;;6.38;4.68;;;;;;;12.97;63.92;101046.81;5018571;27;102440;-50
2022/04/16 00:32:19;;;;;;;6.22;4.43;;;;;;;12.96;63.85;101042.47;5006438;27;102572;-50
2022/04/16 00:34:46;;;;;;;6.25;4.85;;;;;;;12.97;63.81;101038.63;5010787;27;102855;-49
2022/04/16 00:37:13;;;;;;;6.72;4.82;;;;;;;12.96;64.04;101037.00;5006645;27;103822;-50
2022/04/16 00:39:41;;;;;;;4.70;4.30;;;;;;;12.95;63.85;101044.38;5006356;27;102153;-50
2022/04/16 00:42:07;;;;;;;5.53;4.47;;;;;;;12.96;63.87;101037.81;5007321;27;102168;-50
2022/04/16 00:44:34;;;;;;;5.47;4.40;;;;;;;12.95;63.85;101035.38;5007303;27;102649;-50
2022/04/16 00:47:00;;;;;;;4.97;4.55;;;;;;;12.96;64.03;101039.75;5008595;27;106858;-50
2022/04/16 00:49:27;;;;;;;4.78;4.30;;;;;;;12.94;63.74;101039.19;4999561;27;102254;-50
2022/04/16 00:51:53;;;;;;;7.15;4.50;;;;;;;12.95;63.87;101029.91;4993079;28;102454;-50
2022/04/16 00:54:20;;;;;;;5.63;4.47;;;;;;;12.95;63.73;101036.19;5003987;27;102565;-51
2022/04/16 00:56:48;;;;;;;5.93;4.80;;;;;;;12.96;63.80;101037.00;5019139;27;103873;-50
2022/04/16 00:59:14;;;;;;;7.53;4.65;;;;;;;12.95;63.91;101029.91;5016200;27;102269;-50
2022/04/16 01:01:41;;;;;;;4.75;4.32;;;;;;;12.95;63.92;101024.44;5025311;27;102586;-50
2022/04/16 01:04:18;;;;;;;6.32;4.40;;;;;;;12.94;63.74;101018.16;5004331;27;102689;-50
2022/04/16 01:06:48;;;;;;;6.20;4.40;;;;;;;12.94;63.86;101009.94;4991504;28;104417;-50
2022/04/16 01:09:16;;;;;;;5.22;4.18;;;;;;;12.94;63.89;100998.22;5007919;27;102418;-50
2022/04/16 01:11:43;;;;;;;5.40;4.22;;;;;;;12.94;63.74;101001.75;5004496;27;102260;-50
2022/04/16 01:14:11;;;;;;;6.35;4.40;;;;;;;12.94;63.70;100998.22;4996333;27;102750;-50
2022/04/16 01:16:39;;;;;;;;;;;;;;;12.94;63.83;100998.22;4992129;27;104129;-50
2022/04/16 01:19:09;;;;;;;5.97;4.40;;;;;;;12.94;63.91;100990.00;5014443;27;102503;-50
2022/04/16 01:21:36;;;;;;;5.60;4.22;;;;;;;12.94;63.62;100995.47;5027855;27;102310;-50
2022/04/16 01:24:05;;;;;;;5.30;4.40;;;;;;;12.94;64.02;100984.56;4997085;27;102463;-50
2022/04/16 01:26:31;;;;;;;6.43;4.70;;;;;;;12.93;63.94;100986.47;5004386;28;104062;-50
2022/04/16 01:28:59;;;;;;;4.88;4.40;;;;;;;12.94;63.90;100990.81;5001574;27;102312;-50
2022/04/16 01:31:30;;;;;;;5.90;4.35;;;;;;;12.93;63.86;100977.47;5000791;27;102413;-51
2022/04/16 01:33:57;;;;;;;5.28;4.22;;;;;;;12.93;63.73;100982.94;4995856;27;102748;-50
2022/04/16 01:36:25;;;;;;;5.95;4.65;;;;;;;12.94;63.84;100973.63;4991490;28;103734;-50
2022/04/16 01:38:51;;;;;;;5.82;4.00;;;;;;;12.93;63.89;100977.47;5004133;27;102245;-50
2022/04/16 01:41:19;;;;;;;5.88;4.22;;;;;;;12.92;63.96;100971.19;5004795;27;102653;-50
2022/04/16 01:43:45;;;;;;;5.93;4.43;;;;;;;12.93;63.85;100972.00;5000370;27;102655;-50
2022/04/16 01:46:12;;;;;;;4.90;4.40;;;;;;;12.92;63.79;100968.44;5004439;27;103837;-50
2022/04/16 01:48:38;;;;;;;5.95;4.45;;;;;;;12.92;63.70;100959.44;5004666;27;102276;-50
2022/04/16 01:51:05;;;;;;;5.25;4.35;;;;;;;12.92;63.94;100959.44;5006837;27;103243;-50
2022/04/16 01:53:34;;;;;;;5.40;4.35;;;;;;;12.91;63.86;100950.44;5007954;27;102679;-50
2022/04/16 01:56:04;;;;;;;6.43;4.20;;;;;;;12.92;63.97;100954.78;5007992;27;107392;-50
2022/04/16 01:58:32;;;;;;;5.70;4.20;;;;;;;12.93;63.95;100950.94;5008005;27;102269;-50
2022/04/16 02:00:59;;;;;;;4.88;3.75;;;;;;;12.91;63.98;100936.78;5008730;27;102471;-50
2022/04/16 02:03:27;;;;;;;4.90;4.40;;;;;;;12.91;64.03;100935.94;5007731;28;102726;-50
2022/04/16 02:05:54;;;;;;;6.15;4.55;;;;;;;12.91;64.04;100925.84;4998366;28;103875;-50
2022/04/16 02:08:20;;;;;;;5.63;4.40;;;;;;;12.90;63.80;100918.72;5008238;27;102133;-50
2022/04/16 02:10:49;;;;;;;6.18;4.07;;;;;;;12.90;63.77;100923.38;5007477;27;102191;-50
2022/04/16 02:13:15;;;;;;;5.15;3.83;;;;;;;12.90;63.78;100923.38;5005470;28;102376;-50
2022/04/16 02:15:43;;;;;;;6.35;4.35;;;;;;;12.90;63.89;100923.38;5002540;27;103969;-50
2022/04/16 02:18:10;;;;;;;4.82;4.10;;;;;;;12.90;64.04;100937.03;5007761;28;102123;-50
2022/04/16 02:20:36;;;;;;;5.38;4.18;;;;;;;12.91;64.05;100944.97;5007620;27;102478;-50
2022/04/16 02:23:04;;;;;;;5.72;4.18;;;;;;;12.91;64.12;100946.88;5008478;27;102599;-50
2022/04/16 02:25:33;;;;;;;7.13;4.60;;;;;;;12.91;63.95;100941.41;5004576;28;103809;-50
2022/04/16 02:27:59;;;;;;;5.70;4.70;;;;;;;12.90;64.06;100929.66;5004875;27;102420;-50
2022/04/16 02:30:30;;;;;;;5.85;4.60;;;;;;;12.90;63.98;100937.03;4999841;28;102248;-50
2022/04/16 02:32:58;;;;;;;5.50;3.88;;;;;;;12.91;64.18;100935.94;5016639;27;102597;-50
2022/04/16 02:35:25;;;;;;;6.63;4.47;;;;;;;12.90;64.07;100937.84;5021413;27;103910;-50
2022/04/16 02:37:52;;;;;;;4.90;3.90;;;;;;;12.91;63.80;100930.47;4997796;27;102273;-50
2022/04/16 02:40:19;;;;;;;6.60;3.95;;;;;;;12.91;64.05;100927.75;5003342;27;102768;-51
2022/04/16 02:42:46;;;;;;;5.82;4.57;;;;;;;12.90;64.16;100929.66;5005776;27;102598;-50
2022/04/16 02:48:00;;;;;;;6.15;4.05;;;;;;;12.90;63.97;100939.78;5004839;27;102387;-50
2022/04/16 02:50:28;;;;;;;6.47;4.23;;;;;;;12.91;64.07;100936.78;5007454;27;102332;-50
2022/04/16 02:52:55;;;;;;;5.90;4.18;;;;;;;12.92;64.11;100932.13;5001497;28;103648;-50
2022/04/16 02:55:24;;;;;;;4.75;4.25;;;;;;;12.90;64.14;100940.59;5006418;27;103871;-50
2022/04/16 02:57:51;;;;;;;5.50;4.13;;;;;;;12.90;64.16;100943.31;5016090;27;102358;-50
2022/04/16 03:00:20;;;;;;;5.95;4.70;;;;;;;12.90;64.07;100946.06;5015881;27;102454;-50
2022/04/16 03:02:47;;;;;;;5.22;4.15;;;;;;;12.92;64.40;100951.25;4997797;27;102357;-50
2022/04/16 03:05:15;;;;;;;7.47;4.30;;;;;;;12.91;63.96;100952.31;5007718;28;104402;-50
2022/04/16 03:07:43;;;;;;;6.28;3.97;;;;;;;12.91;64.24;100952.31;4998272;28;102542;-50
2022/04/16 03:10:10;;;;;;;5.22;3.97;;;;;;;12.91;64.29;100946.88;5005340;27;102294;-50
2022/04/16 03:12:44;;;;;;;4.85;3.85;;;;;;;12.91;64.45;100958.63;5002574;27;102445;-50
2022/04/16 03:18:18;;;;;;;5.13;4.38;;;;;;;12.92;64.13;100951.25;5003425;27;102172;-50
2022/04/16 03:21:00;;;;;;;6.38;4.38;;;;;;;12.91;64.29;100938.66;5001268;28;102521;-50
2022/04/16 03:23:27;;;;;;;4.63;4.17;;;;;;;12.91;64.17;100946.88;5008181;27;102192;-49
2022/04/16 03:25:56;;;;;;;5.10;4.30;;;;;;;12.90;64.21;100950.69;5005761;28;103876;-50
2022/04/16 03:28:23;;;;;;;5.20;3.92;;;;;;;12.91;64.14;100941.41;5005677;28;102586;-50
2022/04/16 03:30:50;;;;;;;5.90;4.00;;;;;;;12.91;63.83;100952.31;5003051;27;104716;-50
2022/04/16 03:33:17;;;;;;;5.75;4.07;;;;;;;12.90;64.31;100947.97;4991327;28;102678;-50
2022/04/16 03:35:55;;;;;;;5.88;4.38;;;;;;;12.90;64.30;100939.78;4999464;27;103896;-50
2022/04/16 03:38:24;;;;;;;4.97;3.90;;;;;;;12.90;64.28;100932.41;5006310;27;102508;-50
2022/04/16 03:40:52;;;;;;;7.63;4.22;;;;;;;12.92;64.31;100932.13;5020859;27;103058;-50
2022/04/16 03:43:26;;;;;;;4.93;4.18;;;;;;;12.91;64.24;100931.31;5024332;27;102240;-50
2022/04/16 03:45:56;;;;;;;7.10;4.47;;;;;;;12.91;64.14;100933.19;5006105;27;103734;-50
2022/04/16 03:48:22;;;;;;;5.18;4.20;;;;;;;12.91;64.17;100931.31;5006662;27;102620;-50
2022/04/16 03:50:49;;;;;;;6.05;3.90;;;;;;;12.91;64.13;100930.47;5007370;27;102423;-50
2022/04/16 03:53:15;;;;;;;5.30;3.60;;;;;;;12.91;64.21;100927.75;5005387;28;102708;-50
2022/04/16 04:01:17;;;;;;;5.53;3.90;;;;;;;12.92;64.31;100934.84;4989185;28;102521;-50
2022/04/16 04:03:46;;;;;;;7.55;4.22;;;;;;;12.91;64.10;100931.31;4991092;28;102549;-51
2022/04/16 04:06:13;;;;;;;7.10;4.20;;;;;;;12.93;63.88;100928.28;5001861;28;104086;-50
2022/04/16 04:08:49;;;;;;;6.18;4.50;;;;;;;12.92;64.01;100923.94;5005065;27;102642;-50
2022/04/16 04:11:17;;;;;;;7.47;4.25;;;;;;;12.91;63.94;100925.84;5000248;28;104925;-50
2022/04/16 04:13:44;;;;;;;8.32;4.40;;;;;;;12.92;64.29;100923.94;5008254;28;102371;-50
2022/04/16 04:16:10;;;;;;;7.95;4.15;;;;;;;12.91;64.03;100925.00;4993025;28;108058;-50
2022/04/16 04:18:55;;;;;;;6.75;3.88;;;;;;;12.91;64.16;100927.75;4989512;28;102454;-50
2022/04/16 04:21:22;;;;;;;8.00;4.20;;;;;;;12.91;64.12;100927.75;5002798;28;102504;-49
2022/04/16 04:23:49;;;;;;;6.07;3.92;;;;;;;12.92;64.03;100932.13;5006225;28;102720;-50
2022/04/16 04:26:17;;;;;;;5.55;3.55;;;;;;;12.92;63.95;100934.84;5013593;27;103925;-49
2022/04/16 04:28:43;;;;;;;7.03;4.25;;;;;;;12.93;63.89;100931.03;5023832;27;102388;-49
2022/04/16 04:31:10;;;;;;;7.82;4.13;;;;;;;12.92;63.82;100943.06;5005111;28;102465;-50
2022/04/16 04:33:39;;;;;;;9.07;4.72;;;;;;;12.92;63.80;100937.59;5006837;27;102643;-50
2022/04/16 04:36:05;;;;;;;;;;;;;;;12.92;63.78;100932.13;5006418;28;103799;-50
2022/04/16 04:38:32;;;;;;;6.05;4.18;;;;;;;12.93;63.78;100933.75;5010872;27;102436;-50
2022/04/16 04:41:00;;;;;;;5.47;4.32;;;;;;;12.93;64.26;100936.47;5019005;27;102406;-49
2022/04/16 04:43:32;;;;;;;5.72;4.05;;;;;;;12.93;63.87;100922.81;5003260;27;102445;-50
2022/04/16 04:45:59;;;;;;;6.00;4.22;;;;;;;12.93;63.55;100925.56;4999872;27;104239;-50
2022/04/16 04:48:26;;;;;;;8.57;3.80;;;;;;;12.94;63.63;100929.91;5007425;28;102458;-50
2022/04/16 04:50:53;;;;;;;6.00;3.35;;;;;;;12.94;64.04;100929.91;5005005;27;102368;-50
2022/04/16 04:53:20;;;;;;;6.53;3.90;;;;;;;12.95;63.62;100942.50;5006139;28;102135;-50
2022/04/16 04:55:47;;;;;;;6.85;3.58;;;;;;;12.94;63.68;100951.78;5013128;27;104072;-50
2022/04/16 04:58:13;;;;;;;7.13;3.67;;;;;;;12.95;63.84;100951.50;5019845;27;102427;-50
2022/04/16 05:00:49;;;;;;;7.43;3.90;;;;;;;12.95;63.71;100953.44;5022377;27;102143;-50
2022/04/16 05:03:15;;;;;;;8.25;3.45;;;;;;;12.95;63.69;100953.44;5016342;27;102615;-50
2022/04/16 05:05:42;;;;;;;5.90;3.38;;;;;;;12.96;63.71;100963.25;4998783;27;103872;-50
2022/04/16 05:08:09;;;;;;;8.93;3.75;;;;;;;12.96;63.72;100965.97;4988529;28;102288;-50
2022/04/16 05:10:45;;;;;;;5.13;3.65;;;;;;;12.96;63.64;100965.97;5005190;28;102163;-50
2022/04/16 05:13:11;;;;;;;6.03;3.58;;;;;;;12.97;63.60;100975.78;4992341;28;102264;-50
2022/04/16 05:15:38;;;;;;;5.88;3.70;;;;;;;12.96;63.62;100974.16;5028917;27;104048;-50
2022/04/16 05:18:06;;;;;;;6.00;3.70;;;;;;;12.96;63.61;100966.78;5002775;27;102458;-50
2022/04/16 05:20:34;;;;;;;5.45;3.78;;;;;;;12.96;63.57;100958.59;4987706;28;102161;-50
2022/04/16 05:23:00;;;;;;;6.30;3.90;;;;;;;12.95;63.57;100947.97;4999324;27;102723;-50
2022/04/16 05:25:27;;;;;;;5.82;3.40;;;;;;;12.96;63.52;100944.13;4995071;27;104644;-50
2022/04/16 05:27:54;;;;;;;11.02;3.78;;;;;;;12.95;63.60;100953.44;5007468;27;102611;-50
2022/04/16 05:30:29;;;;;;;5.65;3.92;;;;;;;12.96;63.43;100949.59;5008448;27;102489;-51
2022/04/16 05:33:02;;;;;;;6.22;3.88;;;;;;;12.96;63.67;100949.59;4996162;28;102646;-50
2022/04/16 05:35:30;;;;;;;5.72;3.17;;;;;;;12.96;63.76;100955.06;5027748;27;104060;-50
2022/04/16 05:37:57;;;;;;;7.57;3.40;;;;;;;12.96;63.68;100960.50;4999794;27;101910;-50
2022/04/16 05:40:23;;;;;;;7.13;3.90;;;;;;;12.96;63.61;100955.84;5010016;27;102380;-50
2022/04/16 05:42:50;;;;;;;6.47;4.22;;;;;;;12.96;63.42;100963.25;5033979;27;102322;-49
2022/04/16 05:45:17;;;;;;;9.18;6.82;;;;;;;12.97;63.69;100973.06;5018982;27;104093;-50
2022/04/16 05:47:44;;;;;;;7.57;5.15;;;;;;;12.98;63.40;100958.31;4996257;27;102295;-50
2022/04/16 05:50:11;;;;;;;6.68;4.25;;;;;;;12.98;63.59;100947.38;4993485;27;102027;-50
2022/04/16 05:52:40;;;;;;;6.45;4.28;;;;;;;13.00;63.76;100945.19;4997030;28;102209;-50
2022/04/16 05:55:07;;;;;;;7.22;4.47;;;;;;;13.01;63.52;100951.47;4995376;27;103753;-50
2022/04/16 05:57:35;;;;;;;45.95;21.48;;;;;;;13.02;63.59;100942.16;4991505;27;102662;-50
2022/04/16 06:00:02;;;;;;;6.57;3.53;;;;;;;13.02;63.49;100934.81;4999696;27;102193;-50
2022/04/16 06:02:30;;;;;;;4.15;3.17;;;;;;;13.03;63.45;100933.69;5003604;28;102338;-57
2022/04/16 06:04:58;;;;;;;6.03;3.53;;;;;;;13.05;63.48;100931.47;5000436;27;108030;-51
2022/04/16 06:07:24;;;;;;;5.82;3.42;;;;;;;13.06;63.55;100926.88;5025939;27;102505;-50
2022/04/16 06:09:52;;;;;;;4.30;2.95;;;;;;;13.06;63.41;100938.59;4999636;27;102549;-51
2022/04/16 06:12:36;;;;;;;6.00;3.72;;;;;;;13.07;63.51;100923.84;5002704;27;102852;-50
2022/04/16 06:15:02;;;;;;;7.05;3.00;;;;;;;13.10;63.45;100922.47;5011970;27;103920;-51
2022/04/16 06:17:30;;;;;;;5.25;3.22;;;;;;;13.10;63.53;100927.94;5018268;27;102468;-51
2022/04/16 06:19:56;;;;;;;5.03;3.05;;;;;;;13.11;63.56;100941.28;5012433;27;102771;-50
2022/04/16 06:22:24;;;;;;;13.02;3.75;;;;;;;13.10;63.67;100934.19;4993188;27;102457;-50
2022/04/16 06:24:54;;;;;;;;;;;;;;;13.10;63.65;100936.13;4989485;27;104800;-51
2022/04/16 06:27:20;;;;;;;6.13;3.08;;;;;;;13.11;63.56;100945.94;4998993;27;102643;-50
2022/04/16 06:29:54;;;;;;;6.50;3.58;;;;;;;13.11;63.37;100941.28;4996285;27;102759;-52
2022/04/16 06:32:20;;;;;;;7.22;3.47;;;;;;;13.13;63.32;100938.28;5005849;27;102640;-50
2022/04/16 06:34:54;;;;;;;6.68;3.05;;;;;;;13.14;63.38;100939.91;4991407;28;103954;-50
2022/04/16 06:37:21;;;;;;;5.43;3.35;;;;;;;13.15;63.54;100936.91;5007977;27;101909;-50
2022/04/16 06:39:55;;;;;;;5.28;3.35;;;;;;;13.15;63.30;100939.63;5002640;27;102565;-51
2022/04/16 06:42:21;;;;;;;8.23;3.28;;;;;;;13.16;63.27;100944.00;4993699;28;102568;-50
2022/04/16 06:44:48;;;;;;;6.47;3.20;;;;;;;13.16;63.45;100935.81;5007385;27;103944;-51
2022/04/16 06:47:14;;;;;;;5.45;3.95;;;;;;;13.17;63.46;100945.63;5007217;28;102204;-50
2022/04/16 06:49:41;;;;;;;5.30;3.35;;;;;;;13.18;63.41;100940.97;4991954;28;102162;-50
2022/04/16 06:52:07;;;;;;;5.10;3.25;;;;;;;13.19;63.26;100942.59;5009711;27;102021;-50
2022/04/16 06:54:34;;;;;;;4.65;2.95;;;;;;;13.19;63.47;100948.88;5006503;27;103913;-50
2022/04/16 06:57:02;;;;;;;6.72;3.20;;;;;;;13.21;63.38;100948.63;5017762;27;102326;-51
2022/04/16 06:59:30;;;;;;;3.78;2.80;;;;;;;13.21;63.41;100949.44;5022736;28;102633;-50
2022/04/16 07:01:56;;;;;;;7.15;3.17;;;;;;;13.21;63.48;100946.69;5028992;27;102884;-51
2022/04/16 07:04:22;;;;;;;5.70;3.10;;;;;;;13.22;63.40;100951.06;5018699;27;104001;-50
2022/04/16 07:06:49;;;;;;;9.15;3.55;;;;;;;13.24;63.43;100941.81;5027933;27;102473;-51
2022/04/16 07:09:16;;;;;;;4.53;3.00;;;;;;;13.25;63.34;100946.16;5027391;27;102475;-51
2022/04/16 07:11:43;;;;;;;5.68;3.22;;;;;;;13.24;63.82;100945.34;5029578;27;102354;-50
2022/04/16 07:14:11;;;;;;;3.95;2.90;;;;;;;13.25;63.38;100946.16;5027394;27;103983;-50
2022/04/16 07:16:38;;;;;;;5.18;2.83;;;;;;;13.27;62.98;100938.47;5028383;27;102469;-51
2022/04/16 07:19:06;;;;;;;5.87;3.20;;;;;;;13.27;63.43;100933.03;5030730;27;102494;-50
2022/04/16 07:21:34;;;;;;;5.55;2.50;;;;;;;13.28;63.50;100934.66;5033239;27;102603;-50
2022/04/16 07:24:07;;;;;;;6.03;3.00;;;;;;;13.28;63.43;100931.94;5001522;27;103908;-50
2022/04/16 07:26:34;;;;;;;5.30;3.08;;;;;;;13.29;63.41;100941.75;5001896;27;102738;-50
2022/04/16 07:29:00;;;;;;;5.13;3.47;;;;;;;13.30;63.20;100943.38;5001127;27;102037;-50
2022/04/16 07:31:28;;;;;;;5.25;3.20;;;;;;;13.31;63.32;100942.31;4996652;27;102268;-50
2022/04/16 07:33:55;;;;;;;6.53;3.40;;;;;;;13.33;63.15;100948.28;5010392;27;104025;-50
2022/04/16 07:36:22;;;;;;;7.30;3.42;;;;;;;13.33;63.40;100945.56;5018126;27;102282;-50
2022/04/16 07:38:48;;;;;;;5.80;3.30;;;;;;;13.34;63.14;100939.81;5029780;27;103413;-50
2022/04/16 07:41:15;;;;;;;4.75;3.22;;;;;;;13.35;62.90;100944.19;4997014;27;102252;-51
2022/04/16 07:43:43;;;;;;;5.68;3.30;;;;;;;13.36;63.09;100926.66;4989618;28;103825;-50
2022/04/16 07:46:09;;;;;;;7.32;3.45;;;;;;;13.38;63.21;100934.56;4995675;28;102371;-50
2022/04/16 07:48:37;;;;;;;6.82;4.03;;;;;;;13.38;62.96;100940.88;5004181;27;102368;-51
2022/04/16 07:51:05;;;;;;;5.77;3.40;;;;;;;13.40;63.15;100937.84;5007875;27;102531;-50
2022/04/16 07:53:31;;;;;;;5.32;3.40;;;;;;;13.41;63.09;100942.22;5007855;27;104070;-51
2022/04/16 07:55:59;;;;;;;7.75;3.78;;;;;;;13.40;63.00;100946.06;5001385;27;102600;-50
2022/04/16 07:58:26;;;;;;;8.00;3.80;;;;;;;13.42;63.00;100947.41;4989669;28;102327;-50
2022/04/16 08:00:53;;;;;;;6.63;3.58;;;;;;;13.44;63.01;100949.84;4991680;28;102299;-50
2022/04/16 08:03:20;;;;;;;7.13;3.70;;;;;;;13.44;63.06;100944.38;4988909;27;104056;-50
2022/04/16 08:05:48;;;;;;;8.05;3.92;;;;;;;13.45;63.16;100956.94;4996789;28;102206;-50
2022/04/16 08:08:14;;;;;;;10.30;4.25;;;;;;;13.46;63.13;100944.91;5007757;28;102439;-50
2022/04/16 08:10:40;;;;;;;6.53;3.47;;;;;;;13.45;63.14;100946.84;5009707;28;102480;-50
2022/04/16 08:13:09;;;;;;;6.18;3.92;;;;;;;13.46;63.16;100944.91;5008215;27;103912;-51
2022/04/16 08:15:36;;;;;;;6.53;3.90;;;;;;;13.48;62.96;100948.16;5014546;27;102475;-50
2022/04/16 08:18:04;;;;;;;5.88;3.30;;;;;;;13.49;63.17;100946.25;4997350;27;102425;-50
2022/04/16 08:20:30;;;;;;;7.40;3.80;;;;;;;13.49;63.14;100946.25;5002970;28;102423;-50
2022/04/16 08:22:59;;;;;;;6.35;3.83;;;;;;;13.49;63.16;100935.31;4995817;27;104271;-51
2022/04/16 08:27:55;;;;;;;10.10;3.55;;;;;;;13.51;62.97;100933.94;5005144;27;102399;-51
2022/04/16 08:30:22;;;;;;;9.10;3.80;;;;;;;13.52;63.14;100934.75;5007151;27;102475;-50
2022/04/16 08:32:48;;;;;;;7.10;3.50;;;;;;;13.52;63.45;100935.56;4991149;28;103881;-50
2022/04/16 08:35:22;;;;;;;8.13;3.85;;;;;;;13.52;63.07;100927.34;4990363;27;102274;-50
2022/04/16 08:37:51;;;;;;;6.32;3.90;;;;;;;13.52;63.15;100921.88;4995958;27;103031;-50
2022/04/16 08:40:19;;;;;;;4.88;3.60;;;;;;;13.54;63.18;100921.63;4995958;27;102571;-50
2022/04/16 08:42:48;;;;;;;9.33;3.77;;;;;;;13.54;63.18;100921.63;4998712;28;104123;-50
2022/04/16 08:45:16;;;;;;;7.93;4.70;;;;;;;13.53;63.43;100915.34;4998522;28;102659;-50
2022/04/16 08:47:44;;;;;;;8.18;3.72;;;;;;;13.54;63.15;100914.22;5002688;28;102127;-51
2022/04/16 08:50:13;;;;;;;7.18;3.95;;;;;;;13.55;63.15;100918.59;5006589;27;102596;-51
2022/04/16 08:52:40;;;;;;;8.38;3.58;;;;;;;13.56;63.11;100914.78;5003007;28;103912;-51
2022/04/16 08:55:09;;;;;;;6.45;4.15;;;;;;;13.56;63.26;100919.41;5007684;27;102414;-50
2022/04/16 08:57:39;;;;;;;8.70;3.83;;;;;;;13.56;62.92;100914.78;5015046;27;103031;-51
2022/04/16 09:00:13;;;;;;;6.10;4.38;;;;;;;13.56;63.11;100913.94;5006227;28;102320;-51
2022/04/16 09:02:50;;;;;;;10.57;4.53;;;;;;;13.57;63.29;100915.59;5008116;27;103925;-50
2022/04/16 09:05:19;;;;;;;7.72;3.55;;;;;;;13.57;63.15;100901.91;5004768;27;102641;-50
2022/04/16 09:07:51;;;;;;;9.82;3.90;;;;;;;13.57;63.23;100905.47;5010532;27;102170;-50
2022/04/16 09:10:18;;;;;;;8.00;4.47;;;;;;;13.57;63.11;100905.47;5007745;27;103168;-51
2022/04/16 09:13:04;;;;;;;8.23;4.03;;;;;;;13.57;63.39;100905.47;5008342;28;103783;-50
2022/04/16 09:15:31;;;;;;;7.82;4.47;;;;;;;13.58;63.47;100912.56;4996563;27;102283;-51
2022/04/16 09:18:05;;;;;;;6.13;4.20;;;;;;;13.59;63.18;100913.34;4996473;27;102456;-51
2022/04/16 09:20:34;;;;;;;9.60;4.72;;;;;;;13.58;63.05;100918.00;5010957;27;102354;-50
2022/04/16 09:23:18;;;;;;;9.13;5.03;;;;;;;13.58;63.16;100912.56;5006126;27;107921;-51
2022/04/16 09:25:45;;;;;;;11.70;4.60;;;;;;;13.59;63.25;100925.13;5002041;28;102554;-52
2022/04/16 09:28:14;;;;;;;7.60;4.22;;;;;;;13.60;63.21;100920.47;4999563;28;102170;-50
2022/04/16 09:30:48;;;;;;;8.60;4.65;;;;;;;13.60;63.11;100915.00;5008372;27;102305;-50
2022/04/16 09:33:15;;;;;;;8.57;5.05;;;;;;;13.59;63.19;100914.16;5007742;28;103594;-51
2022/04/16 09:35:42;;;;;;;6.65;4.63;;;;;;;13.60;63.24;100921.28;5005857;27;102366;-51
2022/04/16 09:38:12;;;;;;;10.50;4.75;;;;;;;13.60;62.87;100918.56;5005410;27;102560;-50
2022/04/16 09:40:41;;;;;;;7.80;4.75;;;;;;;13.60;63.24;100904.88;5010823;27;102581;-50
2022/04/16 09:43:08;;;;;;;12.02;5.10;;;;;;;13.60;63.20;100907.63;5011858;27;104028;-50
2022/04/16 09:45:40;;;;;;;7.32;4.88;;;;;;;13.61;63.12;100908.44;5026881;27;104018;-51
2022/04/16 09:48:10;;;;;;;10.52;5.70;;;;;;;13.60;63.17;100913.09;5026261;27;102027;-51
2022/04/16 09:50:38;;;;;;;10.25;5.30;;;;;;;13.60;63.27;100921.28;5018539;27;102637;-50
2022/04/16 09:53:06;;;;;;;8.35;4.97;;;;;;;13.61;63.14;100911.16;5015902;27;104022;-51
2022/04/16 09:55:33;;;;;;;8.20;4.65;;;;;;;13.60;63.21;100910.34;5034591;27;102279;-51
2022/04/16 09:58:01;;;;;;;7.40;5.03;;;;;;;13.59;63.23;100908.69;5003325;27;102171;-50
2022/04/16 10:00:49;;;;;;;8.07;4.90;;;;;;;13.60;63.00;100907.63;5010164;27;102666;-50
2022/04/16 10:03:16;;;;;;;7.63;4.75;;;;;;;13.60;63.33;100904.06;4997935;27;105089;-50
2022/04/16 10:05:44;;;;;;;9.45;5.55;;;;;;;13.58;63.30;100909.81;5005599;27;102520;-50
2022/04/16 10:08:13;;;;;;;7.50;5.00;;;;;;;13.58;63.16;100907.06;5002160;27;102556;-50
2022/04/16 10:10:41;;;;;;;5.82;4.80;;;;;;;13.59;62.96;100913.34;4998943;28;102644;-50
2022/04/16 10:13:11;;;;;;;8.48;4.93;;;;;;;13.58;62.93;100909.81;4993047;27;103930;-50
2022/04/16 10:15:52;;;;;;;8.35;4.85;;;;;;;13.58;63.33;100903.53;4999254;27;102662;-50
2022/04/16 10:18:19;;;;;;;6.93;5.00;;;;;;;13.58;63.42;100912.56;5002734;27;102541;-50
2022/04/16 10:20:51;;;;;;;8.18;4.97;;;;;;;13.57;63.45;100916.41;4992517;27;102730;-50
2022/04/16 10:23:27;;;;;;;8.27;5.32;;;;;;;13.57;63.50;100921.06;4991058;28;103872;-50
2022/04/16 10:26:01;;;;;;;6.13;4.50;;;;;;;13.58;63.30;100923.50;5005194;27;102069;-50
2022/04/16 10:28:40;;;;;;;6.93;5.18;;;;;;;13.57;63.23;100924.59;5011796;27;102748;-50
2022/04/16 10:31:21;;;;;;;8.07;5.30;;;;;;;13.57;63.46;100916.41;5017766;27;102652;-50
2022/04/16 10:33:59;;;;;;;8.55;5.90;;;;;;;13.57;63.26;100927.34;4997065;27;104219;-50
2022/04/16 10:36:26;;;;;;;8.63;5.97;;;;;;;13.56;63.23;100920.25;4995856;27;102847;-50
2022/04/16 10:38:53;;;;;;;7.57;5.57;;;;;;;13.56;63.40;100928.44;5003051;27;102446;-50
2022/04/16 10:41:21;;;;;;;8.10;5.93;;;;;;;13.57;63.49;100927.34;5007924;27;103250;-50
2022/04/16 10:43:59;;;;;;;14.20;7.03;;;;;;;13.57;63.22;100921.88;5013991;27;104027;-50
2022/04/16 10:46:43;;;;;;;10.88;6.93;;;;;;;13.56;63.22;100917.50;5006869;27;102385;-51
2022/04/16 10:49:10;;;;;;;10.70;6.85;;;;;;;13.57;63.25;100921.88;5007801;27;102298;-50
2022/04/16 10:51:38;;;;;;;11.75;6.50;;;;;;;13.56;63.13;100914.78;5002858;27;102679;-50
2022/04/16 10:54:08;;;;;;;11.77;7.00;;;;;;;13.56;63.29;100914.78;5006122;27;104068;-51
2022/04/16 10:56:39;;;;;;;11.98;6.43;;;;;;;13.56;63.52;100908.47;4998660;27;102428;-51
2022/04/16 10:59:11;;;;;;;12.55;6.95;;;;;;;13.56;63.32;100903.84;5003058;27;102025;-51
2022/04/16 11:01:37;;;;;;;12.88;6.93;;;;;;;13.57;63.31;100893.72;5008614;27;102794;-50
2022/04/16 11:04:13;;;;;;;10.48;6.63;;;;;;;13.57;63.39;100904.66;5004784;28;103941;-50
2022/04/16 11:06:44;;;;;;;8.93;6.63;;;;;;;13.57;63.42;100901.91;5006386;27;102230;-50
2022/04/16 11:09:12;;;;;;;13.27;6.97;;;;;;;13.56;63.39;100901.09;5008128;27;102106;-50
2022/04/16 11:11:41;;;;;;;12.70;7.27;;;;;;;13.57;63.50;100900.00;4995826;28;102255;-50
2022/04/16 11:14:10;;;;;;;9.38;6.72;;;;;;;13.56;63.51;100900.25;4996407;28;103924;-50
2022/04/16 11:16:42;;;;;;;13.15;7.32;;;;;;;13.56;63.57;100903.84;5000813;28;102595;-50
2022/04/16 11:19:13;;;;;;;11.90;7.22;;;;;;;13.56;63.65;100906.56;4996958;28;102847;-50
2022/04/16 11:21:39;;;;;;;9.60;7.07;;;;;;;13.55;63.40;100906.84;4990617;28;102268;-51
2022/04/16 11:24:15;;;;;;;8.73;6.50;;;;;;;13.55;63.49;100895.91;4988575;28;103735;-50
2022/04/16 11:35:02;;;;;;;12.35;7.13;;;;;;;13.52;63.49;100880.88;4999516;28;104328;-50
2022/04/16 11:37:32;;;;;;;8.85;6.43;;;;;;;13.54;63.73;100877.88;4990705;28;101974;-51
2022/04/16 11:40:00;;;;;;;9.93;5.50;;;;;;;13.53;63.51;100881.72;5001713;27;102186;-50
2022/04/16 11:42:26;;;;;;;8.82;6.28;;;;;;;13.52;63.70;100869.94;5004673;28;102300;-51
2022/04/16 11:44:53;;;;;;;12.68;6.90;;;;;;;13.51;63.71;100868.31;5004475;28;103706;-50